Tuesday, March 31, 2015
15:33 UTC
  |  Log In   |  Register Free
Airport Search:

Coffeyville Municipal Airport
(KCFV)

Coffeyville Municipal Airport Diagram
No Airport Diagram Available

FAA data valid effective March 05, 2015 - April 30, 2015 (unless otherwise noted).

 
 
 
 
 
 
 
 
 
 
 
 
 
 

Current Aviation Weather for Coffeyville Municipal Airport (KCFV)

The most recent METAR observation for KCFV was updated at: 1507
METAR Summary (Translated METAR)
KCFV
311452Z AUTO 31006KT 7SM CLR 17/14 A2997 RMK AO2 SLP145 T01720139 51010
KIDP
311455Z AUTO 35008KT 10SM CLR 17/10 A2997 RMK AO2
(10.6 nm NW from KCFV)
KPPF
311452Z AUTO 33005KT 10SM CLR 18/12 A2998 RMK AO2 SLP148 T01830122 51014
(14.6 nm NE from KCFV)
TAF
No TAF information found within 50 nm of KCFV
  Airport Weather Conditions for KCFV

 Current Weather at CFV
63° F
Fair
Northwest winds at 6.9 mph
CFV NOAA Radar

Pressure: 29.97 in
Humidity: 81%
Wind: Northwest at 6.9 MPH (6 KT)
Dew Point: 57.0°F
Visibility: 7.00 mi


Airport Weather Forecast for KCFV

Translated METAR and TAF for KCFV
Translated METAR for KCFV (1532 UTC 31 March 2015)
found at http://aviationweather.gov/adds/metars/
 
METAR text: KCFV 311452Z AUTO 31006KT 7SM CLR 17/14 A2997 RMK AO2 SLP145 T01720139 51010
Conditions at: KCFV (COFFEYVILLE , KS, US) observed 1452 UTC 31 March 2015
Temperature: 17.2°C (63°F)
Dewpoint: 13.9°C (57°F) [RH = 81%]
Pressure (altimeter): 29.97 inches Hg (1015.0 mb)
[Sea-level pressure: 1014.5 mb]
Winds: from the NW (310 degrees) at 7 MPH (6 knots; 3.1 m/s)
Visibility: 7 miles (11 km)
Ceiling: at least 12,000 feet AGL
Clouds: sky clear below 12,000 feet AGL
Weather: automated observation with no human augmentation;
there may or may not be significant weather present at this time
Translated TAF for KCFV

There is no translated TAF available for this airport

Find All Airport Services Find A Hotel Find A Rental Car Find A Golf Course Find A Restaurant $100 Hamburger



FBO's on the Field
FBO Company Facility Photos Services Transportation Aviation Fuel Prices: Prices include tax
Catering Weather Repair Courtesy Rental Type 100LL JetA JetA+ MOGAS 8087
 
Coffeyville Aircraft, Inc

This FBO has not yet been rated
FS:Phillips 66
Last Updated: Mar-24
Login to update fuel prices
SS:
Contact Coffeyville Aircraft, IncMore FBO Information
 
Add another FBO Facility Photos Catering Weather Repair Courtesy Rental Type 100LL JetA JetA+ MOGAS 8087
Services Transportation Aviation Fuel Prices: Prices include tax


model-print
model-print
model-print
model-print